Hemlock, New York
Current Conditions -  °F | °C
As of 6:54 AM on Sunday 25 Jan 2015 (Local Time) from KDSV Reporting Station
Overcast Overcast  
Wind Chill: 13°   Ceiling: 3100
Heat Index: 26°   Visibility: 10mi
Dew Point: 17°   Wind: 18mph
Humidity: 69%   Direction: 330°NNW
Pressure: 29.77"   Gusts: NA
Location:  42.79°N, 77.61°W
Report Text: KDSV 251154Z AUTO 33016KT 10SM OVC031 M03/M08 A2977 RMK AO2 SLP096 60000 T10331083 10011 21033 53051
Loading
Personal Weather Stations






























Interactive Weather Map New forecast layout! Learn more

10-Day Weather Forecast

Advertisements
Track Severe Weather on mobile